createdAt,value
2022-11-05T00:00:43.737Z,22.24
2022-11-05T00:01:48.009Z,22.23
2022-11-05T00:02:52.567Z,22.2
2022-11-05T00:03:56.841Z,22.2
2022-11-05T00:05:01.288Z,22.2
2022-11-05T00:06:05.500Z,22.2
2022-11-05T00:07:09.693Z,22.22
2022-11-05T00:08:13.877Z,22.19
2022-11-05T00:09:18.063Z,22.19
2022-11-05T00:10:22.302Z,22.19
2022-11-05T00:11:26.517Z,22.17
2022-11-05T00:12:30.735Z,22.15
2022-11-05T00:13:34.977Z,22.16
2022-11-05T00:14:39.182Z,22.14
2022-11-05T00:15:43.382Z,22.16
2022-11-05T00:16:47.615Z,22.14
2022-11-05T00:17:51.859Z,22.12
2022-11-05T00:18:56.060Z,22.1
2022-11-05T00:20:00.275Z,22.12
2022-11-05T00:21:04.520Z,22.13
2022-11-05T00:22:08.710Z,22.14
2022-11-05T00:23:13.179Z,22.14
2022-11-05T00:24:23.271Z,22.15
2022-11-05T00:25:28.454Z,22.13
2022-11-05T00:26:32.669Z,22.14
2022-11-05T00:27:36.981Z,22.13
2022-11-05T00:28:41.184Z,22.14
2022-11-05T00:29:45.389Z,22.13
2022-11-05T00:30:49.599Z,22.16
2022-11-05T00:31:53.787Z,22.12
2022-11-05T00:32:58.036Z,22.11
2022-11-05T00:34:02.235Z,22.07
2022-11-05T00:35:06.573Z,22.1
2022-11-05T00:36:10.924Z,22.11
2022-11-05T00:37:15.115Z,22.1
2022-11-05T00:38:19.376Z,22.11
2022-11-05T00:39:23.574Z,22.11
2022-11-05T00:40:27.836Z,22.12
2022-11-05T00:41:32.073Z,22.11
2022-11-05T00:42:36.272Z,22.09
2022-11-05T00:43:40.467Z,22.09
2022-11-05T00:44:44.657Z,22.08
2022-11-05T00:45:48.855Z,22.08
2022-11-05T00:46:57.243Z,22.07
2022-11-05T00:48:03.824Z,22.06
2022-11-05T00:49:08.056Z,22.07
2022-11-05T00:50:12.267Z,22.06
2022-11-05T00:51:16.522Z,22.05
2022-11-05T00:52:20.684Z,22.05
2022-11-05T00:53:24.897Z,22.04
2022-11-05T00:54:29.088Z,22.03
2022-11-05T00:55:33.357Z,22.02
2022-11-05T00:56:37.634Z,21.98
2022-11-05T00:57:41.824Z,21.98
2022-11-05T00:58:46.045Z,21.99
2022-11-05T00:59:50.231Z,22.01
2022-11-05T01:00:54.429Z,22.01
2022-11-05T01:01:58.911Z,22.02
2022-11-05T01:03:03.633Z,22.01
2022-11-05T01:04:07.845Z,22.01
2022-11-05T01:05:12.050Z,22.01
2022-11-05T01:06:16.265Z,22.03
2022-11-05T01:07:20.513Z,21.99
2022-11-05T01:08:24.725Z,22.01
2022-11-05T01:09:28.932Z,21.96
2022-11-05T01:10:33.163Z,21.98
2022-11-05T01:11:37.487Z,21.96
2022-11-05T01:12:41.734Z,21.95
2022-11-05T01:13:45.961Z,21.95
2022-11-05T01:14:50.197Z,21.94
2022-11-05T01:15:54.463Z,21.96
2022-11-05T01:16:58.708Z,21.95
2022-11-05T01:18:02.948Z,21.94
2022-11-05T01:19:07.189Z,21.92
2022-11-05T01:20:11.423Z,21.93
2022-11-05T01:21:15.677Z,21.93
2022-11-05T01:22:19.956Z,21.93
2022-11-05T01:23:24.196Z,21.92
2022-11-05T01:24:28.455Z,21.9
2022-11-05T01:25:32.647Z,21.85
2022-11-05T01:26:36.855Z,21.87
2022-11-05T01:27:41.062Z,21.87
2022-11-05T01:28:45.391Z,21.88
2022-11-05T01:29:49.811Z,21.87
2022-11-05T01:30:54.039Z,21.87
2022-11-05T01:31:58.284Z,21.89
2022-11-05T01:33:02.540Z,21.88
2022-11-05T01:34:06.829Z,21.89
2022-11-05T01:35:11.039Z,21.9
2022-11-05T01:36:15.278Z,21.91
2022-11-05T01:37:19.524Z,21.91
2022-11-05T01:38:23.738Z,21.88
2022-11-05T01:39:27.976Z,21.88
2022-11-05T01:40:32.255Z,21.88
2022-11-05T01:41:36.503Z,21.88
2022-11-05T01:42:40.733Z,21.89
2022-11-05T01:43:44.939Z,21.9
2022-11-05T01:44:49.176Z,21.9
2022-11-05T01:45:53.402Z,21.89
2022-11-05T01:46:57.859Z,21.91
2022-11-05T01:48:02.143Z,21.88
2022-11-05T01:49:06.391Z,21.88
2022-11-05T01:50:10.618Z,21.86
2022-11-05T01:51:14.888Z,21.87
2022-11-05T01:52:19.088Z,21.87
2022-11-05T01:53:23.305Z,21.87
2022-11-05T01:54:27.497Z,21.89
2022-11-05T01:55:31.749Z,21.87
2022-11-05T01:56:35.978Z,21.87
2022-11-05T01:57:40.200Z,21.87
2022-11-05T01:58:44.445Z,21.87
2022-11-05T01:59:48.699Z,21.85
2022-11-05T02:00:52.954Z,21.86
2022-11-05T02:01:57.303Z,21.87
2022-11-05T02:03:02.237Z,21.83
2022-11-05T02:04:06.674Z,21.84
2022-11-05T02:05:10.922Z,21.8
2022-11-05T02:06:15.165Z,21.82
2022-11-05T02:07:19.459Z,21.82
2022-11-05T02:08:23.689Z,21.83
2022-11-05T02:09:27.933Z,21.84
2022-11-05T02:10:32.142Z,21.82
2022-11-05T02:11:36.398Z,21.82
2022-11-05T02:12:40.616Z,21.78
2022-11-05T02:13:44.869Z,21.78
2022-11-05T02:14:49.122Z,21.8
2022-11-05T02:15:53.384Z,21.79
2022-11-05T02:16:57.618Z,21.78
2022-11-05T02:18:01.880Z,21.77
2022-11-05T02:19:06.185Z,21.8
2022-11-05T02:20:10.416Z,21.8
2022-11-05T02:21:14.652Z,21.8
2022-11-05T02:22:18.911Z,21.8
2022-11-05T02:23:23.137Z,21.78
2022-11-05T02:24:27.375Z,21.79
2022-11-05T02:25:31.643Z,21.81
2022-11-05T02:26:35.862Z,21.78
2022-11-05T02:27:40.104Z,21.75
2022-11-05T02:28:44.361Z,21.76
2022-11-05T02:29:48.612Z,21.77
2022-11-05T02:30:52.889Z,21.77
2022-11-05T02:31:57.114Z,21.78
2022-11-05T02:33:01.366Z,21.79
2022-11-05T02:34:05.591Z,21.78
2022-11-05T02:35:09.841Z,21.78
2022-11-05T02:36:14.102Z,21.75
2022-11-05T02:37:18.343Z,21.75
2022-11-05T02:38:22.596Z,21.78
2022-11-05T02:39:26.805Z,21.75
2022-11-05T02:40:31.028Z,21.74
2022-11-05T02:41:35.323Z,21.74
2022-11-05T02:42:39.551Z,21.73
2022-11-05T02:43:43.835Z,21.7
2022-11-05T02:44:48.071Z,21.71
2022-11-05T02:45:52.308Z,21.74
2022-11-05T02:46:56.538Z,21.73
2022-11-05T02:48:01.009Z,21.7
2022-11-05T02:49:05.284Z,21.7
2022-11-05T02:50:09.516Z,21.73
2022-11-05T02:51:13.713Z,21.69
2022-11-05T02:52:17.936Z,21.68
2022-11-05T02:53:22.169Z,21.67
2022-11-05T02:54:26.416Z,21.69
2022-11-05T02:55:30.642Z,21.67
2022-11-05T02:56:34.860Z,21.69
2022-11-05T02:57:39.088Z,21.7
2022-11-05T02:58:43.328Z,21.64
2022-11-05T02:59:47.575Z,21.68
2022-11-05T03:00:51.786Z,21.65
2022-11-05T03:01:56.205Z,21.67
2022-11-05T03:03:00.949Z,21.65
2022-11-05T03:04:05.529Z,21.63
2022-11-05T03:05:09.804Z,21.63
2022-11-05T03:06:14.016Z,21.65
2022-11-05T03:07:18.495Z,21.68
2022-11-05T03:08:22.726Z,21.68
2022-11-05T03:09:27.374Z,21.68
2022-11-05T03:10:31.584Z,21.68
2022-11-05T03:11:35.846Z,21.69
2022-11-05T03:12:40.077Z,21.69
2022-11-05T03:13:44.330Z,21.7
2022-11-05T03:14:48.577Z,21.72
2022-11-05T03:15:53.067Z,21.71
2022-11-05T03:16:57.306Z,21.69
2022-11-05T03:18:01.523Z,21.69
2022-11-05T03:19:05.753Z,21.7
2022-11-05T03:20:10.037Z,21.7
2022-11-05T03:21:14.344Z,21.67
2022-11-05T03:22:18.555Z,21.67
2022-11-05T03:23:22.771Z,21.71
2022-11-05T03:24:27.029Z,21.72
2022-11-05T03:25:31.338Z,21.7
2022-11-05T03:26:35.577Z,21.7
2022-11-05T03:27:39.792Z,21.69
2022-11-05T03:28:44.010Z,21.7
2022-11-05T03:29:48.270Z,21.67
2022-11-05T03:30:52.497Z,21.67
2022-11-05T03:31:56.794Z,21.69
2022-11-05T03:33:01.019Z,21.69
2022-11-05T03:34:05.295Z,21.67
2022-11-05T03:35:09.536Z,21.68
2022-11-05T03:36:13.795Z,21.68
2022-11-05T03:37:18.021Z,21.67
2022-11-05T03:38:22.275Z,21.65
2022-11-05T03:39:26.521Z,21.67
2022-11-05T03:40:30.987Z,21.65
2022-11-05T03:41:35.245Z,21.67
2022-11-05T03:42:39.532Z,21.68
2022-11-05T03:43:43.787Z,21.64
2022-11-05T03:44:48.029Z,21.65
2022-11-05T03:45:52.269Z,21.66
2022-11-05T03:46:56.504Z,21.65
2022-11-05T03:48:00.776Z,21.67
2022-11-05T03:49:05.105Z,21.67
2022-11-05T03:50:09.380Z,21.59
2022-11-05T03:51:13.602Z,21.62
2022-11-05T03:52:17.848Z,21.61
2022-11-05T03:53:22.079Z,21.64
2022-11-05T03:54:26.328Z,21.64
2022-11-05T03:55:30.557Z,21.61
2022-11-05T03:56:34.978Z,21.62
2022-11-05T03:57:39.192Z,21.62
2022-11-05T03:58:43.402Z,21.63
2022-11-05T03:59:47.640Z,21.64
2022-11-05T04:00:51.862Z,21.65
2022-11-05T04:01:56.255Z,21.65
2022-11-05T04:03:01.064Z,21.65
2022-11-05T04:04:05.554Z,21.63
2022-11-05T04:05:09.826Z,21.65
2022-11-05T04:06:14.190Z,21.65
2022-11-05T04:07:18.417Z,21.6
2022-11-05T04:08:22.658Z,21.59
2022-11-05T04:09:26.885Z,21.59
2022-11-05T04:10:31.095Z,21.61
2022-11-05T04:11:37.563Z,21.6
2022-11-05T04:12:41.812Z,21.6
2022-11-05T04:13:46.026Z,21.58
2022-11-05T04:14:50.236Z,21.58
2022-11-05T04:15:54.438Z,21.56
2022-11-05T04:16:58.655Z,21.62
2022-11-05T04:18:02.931Z,21.63
2022-11-05T04:19:07.160Z,21.64
2022-11-05T04:20:11.429Z,21.64
2022-11-05T04:21:15.661Z,21.6
2022-11-05T04:22:19.891Z,21.61
2022-11-05T04:23:24.176Z,21.6
2022-11-05T04:24:28.379Z,21.59
2022-11-05T04:25:32.610Z,21.62
2022-11-05T04:26:36.828Z,21.61
2022-11-05T04:27:41.043Z,21.62
2022-11-05T04:28:45.326Z,21.6
2022-11-05T04:29:49.597Z,21.56
2022-11-05T04:30:53.834Z,21.56
2022-11-05T04:31:58.116Z,21.57
2022-11-05T04:33:02.347Z,21.57
2022-11-05T04:34:06.615Z,21.59
2022-11-05T04:35:10.846Z,21.58
2022-11-05T04:36:15.066Z,21.6
2022-11-05T04:37:19.297Z,21.57
2022-11-05T04:38:23.547Z,21.56
2022-11-05T04:39:27.799Z,21.57
2022-11-05T04:40:32.057Z,21.52
2022-11-05T04:41:36.282Z,21.54
2022-11-05T04:42:40.486Z,21.5
2022-11-05T04:43:45.735Z,21.53
2022-11-05T04:44:49.942Z,21.52
2022-11-05T04:45:54.173Z,21.49
2022-11-05T04:46:58.381Z,21.5
2022-11-05T04:48:02.636Z,21.48
2022-11-05T04:49:06.871Z,21.51
2022-11-05T04:50:11.145Z,21.54
2022-11-05T04:51:15.379Z,21.54
2022-11-05T04:52:19.584Z,21.57
2022-11-05T04:53:23.814Z,21.54
2022-11-05T04:54:28.028Z,21.53
2022-11-05T04:55:32.247Z,21.53
2022-11-05T04:56:36.500Z,21.56
2022-11-05T04:57:40.730Z,21.57
2022-11-05T04:58:44.987Z,21.56
2022-11-05T04:59:49.221Z,21.5
2022-11-05T05:00:53.644Z,21.48
2022-11-05T05:01:58.085Z,21.47
2022-11-05T05:03:02.583Z,21.51
2022-11-05T05:04:06.839Z,21.54
2022-11-05T05:05:11.044Z,21.52
2022-11-05T05:06:15.302Z,21.52
2022-11-05T05:07:19.541Z,21.58
2022-11-05T05:08:23.812Z,21.62
2022-11-05T05:09:28.057Z,21.69
2022-11-05T05:10:32.310Z,21.75
2022-11-05T05:11:36.529Z,21.82
2022-11-05T05:12:40.783Z,21.87
2022-11-05T05:13:45.073Z,21.92
2022-11-05T05:14:49.287Z,21.95
2022-11-05T05:15:53.536Z,21.98
2022-11-05T05:16:57.759Z,21.98
2022-11-05T05:18:02.005Z,22.01
2022-11-05T05:19:06.659Z,22
2022-11-05T05:20:10.911Z,22.02
2022-11-05T05:21:15.153Z,22.04
2022-11-05T05:22:19.385Z,22.05
2022-11-05T05:23:23.644Z,22.06
2022-11-05T05:24:27.890Z,22.06
2022-11-05T05:25:32.120Z,22.07
2022-11-05T05:26:36.353Z,22.08
2022-11-05T05:27:40.605Z,22.06
2022-11-05T05:28:44.833Z,22.07
2022-11-05T05:29:49.093Z,22.07
2022-11-05T05:30:57.685Z,22.09
2022-11-05T05:32:02.813Z,22.13
2022-11-05T05:33:07.059Z,22.16
2022-11-05T05:34:11.851Z,22.21
2022-11-05T05:35:16.149Z,22.23
2022-11-05T05:36:20.402Z,22.28
2022-11-05T05:37:24.654Z,22.31
2022-11-05T05:38:28.857Z,22.36
2022-11-05T05:39:33.090Z,22.39
2022-11-05T05:40:37.352Z,22.4
2022-11-05T05:41:41.557Z,22.42
2022-11-05T05:42:45.760Z,22.43
2022-11-05T05:43:50.044Z,22.46
2022-11-05T05:44:54.272Z,22.46
2022-11-05T05:45:58.472Z,22.48
2022-11-05T05:47:02.672Z,22.51
2022-11-05T05:48:06.919Z,22.53
2022-11-05T05:49:12.564Z,22.54
2022-11-05T05:50:16.979Z,22.56
2022-11-05T05:51:21.346Z,22.57
2022-11-05T05:52:25.562Z,22.6
2022-11-05T05:53:29.805Z,22.65
2022-11-05T05:54:37.134Z,22.66
2022-11-05T05:55:46.332Z,22.66
2022-11-05T05:56:50.532Z,22.67
2022-11-05T05:57:54.771Z,22.67
2022-11-05T05:58:59.023Z,22.68
2022-11-05T06:00:03.290Z,22.68
2022-11-05T06:01:07.501Z,22.68
2022-11-05T06:02:17.972Z,22.67
2022-11-05T06:03:22.635Z,22.66
2022-11-05T06:04:26.901Z,22.65
2022-11-05T06:05:31.147Z,22.61
2022-11-05T06:06:35.404Z,22.61
2022-11-05T06:07:39.630Z,22.58
2022-11-05T06:08:43.832Z,22.56
2022-11-05T06:09:48.055Z,22.54
2022-11-05T06:10:52.376Z,22.53
2022-11-05T06:11:56.791Z,22.51
2022-11-05T06:13:01.047Z,22.48
2022-11-05T06:14:05.272Z,22.47
2022-11-05T06:15:09.622Z,22.45
2022-11-05T06:16:13.892Z,22.43
2022-11-05T06:17:18.122Z,22.41
2022-11-05T06:18:22.419Z,22.41
2022-11-05T06:19:26.712Z,22.4
2022-11-05T06:20:30.940Z,22.38
2022-11-05T06:21:35.175Z,22.37
2022-11-05T06:22:39.407Z,22.34
2022-11-05T06:23:43.680Z,22.32
2022-11-05T06:24:47.939Z,22.33
2022-11-05T06:25:52.156Z,22.3
2022-11-05T06:26:56.403Z,22.3
2022-11-05T06:28:00.688Z,22.28
2022-11-05T06:29:04.912Z,22.26
2022-11-05T06:30:09.199Z,22.26
2022-11-05T06:31:13.478Z,22.24
2022-11-05T06:32:17.797Z,22.22
2022-11-05T06:33:22.073Z,22.21
2022-11-05T06:34:26.301Z,22.18
2022-11-05T06:35:30.666Z,22.18
2022-11-05T06:36:34.870Z,22.17
2022-11-05T06:37:39.098Z,22.17
2022-11-05T06:38:43.357Z,22.15
2022-11-05T06:39:47.660Z,22.13
2022-11-05T06:40:52.021Z,22.13
2022-11-05T06:42:16.995Z,22.11
2022-11-05T06:43:22.696Z,22.09
2022-11-05T06:44:26.982Z,22.1
2022-11-05T06:45:31.208Z,22.08
2022-11-05T06:46:35.516Z,22.08
2022-11-05T06:47:39.802Z,22.08
2022-11-05T06:48:44.044Z,22.07
2022-11-05T06:49:48.300Z,22.07
2022-11-05T06:50:52.567Z,22.07
2022-11-05T06:51:56.786Z,22.06
2022-11-05T06:53:01.029Z,22.07
2022-11-05T06:54:05.266Z,22.06
2022-11-05T06:55:09.496Z,22.06
2022-11-05T06:56:13.776Z,22.06
2022-11-05T06:57:18.065Z,22.07
2022-11-05T06:58:23.324Z,22.07
2022-11-05T06:59:27.595Z,22.06
2022-11-05T07:00:31.912Z,22.08
2022-11-05T07:01:36.558Z,22.1
2022-11-05T07:02:41.421Z,22.14
2022-11-05T07:03:45.642Z,22.17
2022-11-05T07:04:49.901Z,22.24
2022-11-05T07:05:54.145Z,22.3
2022-11-05T07:06:58.410Z,22.37
2022-11-05T07:08:02.650Z,22.41
2022-11-05T07:09:06.920Z,22.43
2022-11-05T07:10:11.182Z,22.45
2022-11-05T07:11:15.402Z,22.47
2022-11-05T07:12:19.643Z,22.47
2022-11-05T07:13:24.020Z,22.48
2022-11-05T07:14:28.248Z,22.48
2022-11-05T07:15:32.497Z,22.48
2022-11-05T07:16:36.719Z,22.46
2022-11-05T07:17:40.931Z,22.46
2022-11-05T07:18:45.580Z,22.46
2022-11-05T07:19:49.855Z,22.45
2022-11-05T07:20:54.091Z,22.46
2022-11-05T07:21:58.331Z,22.45
2022-11-05T07:23:02.573Z,22.44
2022-11-05T07:24:06.790Z,22.44
2022-11-05T07:25:10.988Z,22.43
2022-11-05T07:26:15.214Z,22.42
2022-11-05T07:27:19.435Z,22.44
2022-11-05T07:28:23.655Z,22.44
2022-11-05T07:29:27.911Z,22.43
2022-11-05T07:30:32.171Z,22.43
2022-11-05T07:31:36.417Z,22.41
2022-11-05T07:32:40.653Z,22.41
2022-11-05T07:33:44.880Z,22.39
2022-11-05T07:34:49.136Z,22.38
2022-11-05T07:35:53.381Z,22.37
2022-11-05T07:36:57.628Z,22.35
2022-11-05T07:38:01.846Z,22.33
2022-11-05T07:39:06.085Z,22.33
2022-11-05T07:40:10.325Z,22.33
2022-11-05T07:41:14.555Z,22.3
2022-11-05T07:42:18.902Z,22.3
2022-11-05T07:43:23.104Z,22.29
2022-11-05T07:44:27.422Z,22.32
2022-11-05T07:45:31.660Z,22.33
2022-11-05T07:46:35.986Z,22.33
2022-11-05T07:47:40.297Z,22.29
2022-11-05T07:48:44.550Z,22.25
2022-11-05T07:49:48.816Z,22.19
2022-11-05T07:50:53.035Z,22.15
2022-11-05T07:51:57.263Z,22.13
2022-11-05T07:53:01.539Z,22.09
2022-11-05T07:54:05.813Z,22.08
2022-11-05T07:55:10.060Z,22.06
2022-11-05T07:56:14.306Z,22.05
2022-11-05T07:57:18.582Z,22.03
2022-11-05T07:58:22.777Z,22.01
2022-11-05T07:59:26.966Z,21.97
2022-11-05T08:00:31.220Z,21.95
2022-11-05T08:01:35.884Z,21.93
2022-11-05T08:02:41.096Z,21.94
2022-11-05T08:03:46.473Z,21.93
2022-11-05T08:04:51.021Z,21.9
2022-11-05T08:05:55.270Z,21.91
2022-11-05T08:06:59.489Z,21.88
2022-11-05T08:08:03.745Z,21.87
2022-11-05T08:09:08.026Z,21.86
2022-11-05T08:10:12.257Z,21.87
2022-11-05T08:11:16.490Z,21.86
2022-11-05T08:12:20.739Z,21.86
2022-11-05T08:13:24.973Z,21.84
2022-11-05T08:14:29.229Z,21.85
2022-11-05T08:15:33.456Z,21.86
2022-11-05T08:16:37.689Z,21.84
2022-11-05T08:17:41.936Z,21.83
2022-11-05T08:18:46.180Z,21.82
2022-11-05T08:19:50.413Z,21.82
2022-11-05T08:20:54.668Z,21.84
2022-11-05T08:21:58.964Z,21.85
2022-11-05T08:23:03.221Z,21.84
2022-11-05T08:24:07.445Z,21.84
2022-11-05T08:25:11.705Z,21.83
2022-11-05T08:26:15.941Z,21.81
2022-11-05T08:27:20.218Z,21.84
2022-11-05T08:28:24.461Z,21.85
2022-11-05T08:29:28.707Z,21.86
2022-11-05T08:30:32.946Z,21.86
2022-11-05T08:31:37.150Z,21.91
2022-11-05T08:32:41.412Z,21.91
2022-11-05T08:33:45.650Z,21.97
2022-11-05T08:34:49.910Z,21.97
2022-11-05T08:35:54.119Z,22.01
2022-11-05T08:36:58.372Z,22.02
2022-11-05T08:38:02.617Z,22.08
2022-11-05T08:39:07.097Z,22.11
2022-11-05T08:40:19.489Z,22.13
2022-11-05T08:41:23.734Z,22.12
2022-11-05T08:42:27.991Z,22.12
2022-11-05T08:43:32.247Z,22.11
2022-11-05T08:44:36.485Z,22.1
2022-11-05T08:45:40.699Z,22.1
2022-11-05T08:46:44.922Z,22.09
2022-11-05T08:47:49.124Z,22.09
2022-11-05T08:48:53.381Z,22.09
2022-11-05T08:49:57.647Z,22.08
2022-11-05T08:51:01.853Z,22.08
2022-11-05T08:52:06.105Z,22.09
2022-11-05T08:53:10.849Z,22.09
2022-11-05T08:54:16.385Z,22.08
2022-11-05T08:55:20.607Z,22.07
2022-11-05T08:56:24.841Z,22.06
2022-11-05T08:57:29.117Z,22.05
2022-11-05T08:58:33.373Z,22.07
2022-11-05T08:59:37.650Z,22.09
2022-11-05T09:00:41.935Z,22.08
2022-11-05T09:01:46.538Z,22.07
2022-11-05T09:02:51.201Z,22.08
2022-11-05T09:03:55.489Z,22.06
2022-11-05T09:04:59.717Z,22.04
2022-11-05T09:06:03.980Z,22.03
2022-11-05T09:07:08.228Z,22.01
2022-11-05T09:08:12.503Z,22
2022-11-05T09:09:16.764Z,22
2022-11-05T09:10:21.026Z,21.99
2022-11-05T09:11:37.729Z,21.98
2022-11-05T09:13:19.197Z,21.96
2022-11-05T09:14:25.294Z,21.96
2022-11-05T09:15:29.513Z,21.94
2022-11-05T09:16:33.796Z,21.94
2022-11-05T09:17:38.042Z,21.93
2022-11-05T09:18:42.309Z,21.93
2022-11-05T09:19:46.538Z,21.93
2022-11-05T09:20:50.784Z,21.91
2022-11-05T09:21:55.092Z,21.93
2022-11-05T09:22:59.301Z,21.94
2022-11-05T09:24:03.536Z,21.92
2022-11-05T09:25:07.755Z,21.94
2022-11-05T09:26:12.006Z,21.91
2022-11-05T09:27:16.315Z,21.88
2022-11-05T09:28:20.659Z,21.9
2022-11-05T09:29:24.898Z,21.93
2022-11-05T09:30:29.100Z,21.93
2022-11-05T09:31:33.314Z,21.93
2022-11-05T09:32:37.555Z,21.92
2022-11-05T09:33:41.815Z,21.9
2022-11-05T09:34:46.026Z,21.91
2022-11-05T09:35:50.280Z,21.89
2022-11-05T09:36:54.516Z,21.92
2022-11-05T09:38:01.045Z,21.91
2022-11-05T09:39:05.495Z,21.89
2022-11-05T09:40:09.748Z,21.92
2022-11-05T09:41:14.006Z,21.95
2022-11-05T09:42:18.265Z,22
2022-11-05T09:43:24.996Z,22.06
2022-11-05T09:44:35.226Z,22.11
2022-11-05T09:45:39.495Z,22.15
2022-11-05T09:46:43.717Z,22.17
2022-11-05T09:47:47.953Z,22.2
2022-11-05T09:48:52.212Z,22.22
2022-11-05T09:49:56.497Z,22.23
2022-11-05T09:51:00.732Z,22.23
2022-11-05T09:52:05.247Z,22.23
2022-11-05T09:53:09.776Z,22.22
2022-11-05T09:54:15.117Z,22.23
2022-11-05T09:55:19.374Z,22.21
2022-11-05T09:56:23.614Z,22.22
2022-11-05T09:57:27.910Z,22.21
2022-11-05T09:58:32.645Z,22.2
2022-11-05T09:59:36.906Z,22.15
2022-11-05T10:00:41.277Z,22.15
2022-11-05T10:01:45.881Z,22.16
2022-11-05T10:02:50.551Z,22.15
2022-11-05T10:03:54.796Z,22.15
2022-11-05T10:05:00.694Z,22.13
2022-11-05T10:06:13.060Z,22.13
2022-11-05T10:07:17.294Z,22.11
2022-11-05T10:08:21.532Z,22.1
2022-11-05T10:09:25.774Z,22.08
2022-11-05T10:10:30.034Z,22.09
2022-11-05T10:11:42.644Z,22.09
2022-11-05T10:12:46.886Z,22.08
2022-11-05T10:13:51.151Z,22.08
2022-11-05T10:14:55.406Z,22.07
2022-11-05T10:15:59.649Z,22.06
2022-11-05T10:17:03.882Z,22.04
2022-11-05T10:18:08.162Z,22.01
2022-11-05T10:19:12.418Z,22
2022-11-05T10:20:16.687Z,21.98
2022-11-05T10:21:32.487Z,21.97
2022-11-05T10:23:10.132Z,21.94
2022-11-05T10:24:15.312Z,21.99
2022-11-05T10:25:19.589Z,22.02
2022-11-05T10:26:23.791Z,22.06
2022-11-05T10:27:29.115Z,22.1
2022-11-05T10:28:33.377Z,22.12
2022-11-05T10:29:37.634Z,22.15
2022-11-05T10:30:41.875Z,22.16
2022-11-05T10:31:46.103Z,22.16
2022-11-05T10:32:50.340Z,22.19
2022-11-05T10:33:54.761Z,22.2
2022-11-05T10:34:59.014Z,22.21
2022-11-05T10:36:03.280Z,22.24
2022-11-05T10:37:08.537Z,22.23
2022-11-05T10:38:12.823Z,22.23
2022-11-05T10:39:17.033Z,22.26
2022-11-05T10:40:21.277Z,22.28
2022-11-05T10:41:25.544Z,22.31
2022-11-05T10:42:29.810Z,22.28
2022-11-05T10:43:34.065Z,22.27
2022-11-05T10:44:38.296Z,22.28
2022-11-05T10:45:42.501Z,22.28
2022-11-05T10:46:46.713Z,22.28
2022-11-05T10:47:50.957Z,22.29
2022-11-05T10:48:55.216Z,22.29
2022-11-05T10:49:59.448Z,22.31
2022-11-05T10:51:03.734Z,22.3
2022-11-05T10:52:07.998Z,22.32
2022-11-05T10:53:12.511Z,22.33
2022-11-05T10:54:17.632Z,22.33
2022-11-05T10:55:21.880Z,22.31
2022-11-05T10:56:26.145Z,22.33
2022-11-05T10:57:30.387Z,22.31
2022-11-05T10:58:34.667Z,22.33
2022-11-05T10:59:38.891Z,22.32
2022-11-05T11:00:43.221Z,22.37
2022-11-05T11:01:47.774Z,22.37
2022-11-05T11:02:52.380Z,22.41
2022-11-05T11:03:56.653Z,22.46
2022-11-05T11:05:00.905Z,22.53
2022-11-05T11:06:05.129Z,22.61
2022-11-05T11:07:09.372Z,22.69
2022-11-05T11:08:13.805Z,22.7
2022-11-05T11:09:18.141Z,22.74
2022-11-05T11:10:22.385Z,22.77
2022-11-05T11:11:26.626Z,22.79
2022-11-05T11:12:30.876Z,22.77
2022-11-05T11:13:43.174Z,22.81
2022-11-05T11:14:47.431Z,22.8
2022-11-05T11:15:51.679Z,22.74
2022-11-05T11:16:55.926Z,22.74
2022-11-05T11:18:00.183Z,22.76
2022-11-05T11:19:04.407Z,22.73
2022-11-05T11:20:09.253Z,22.69
2022-11-05T11:21:13.508Z,22.73
2022-11-05T11:22:17.763Z,22.73
2022-11-05T11:23:22.035Z,22.72
2022-11-05T11:24:29.723Z,22.74
2022-11-05T11:25:37.050Z,22.76
2022-11-05T11:26:41.337Z,22.75
2022-11-05T11:27:45.651Z,22.74
2022-11-05T11:28:49.874Z,22.75
2022-11-05T11:29:54.220Z,22.76
2022-11-05T11:30:58.453Z,22.73
2022-11-05T11:32:02.678Z,22.73
2022-11-05T11:33:06.904Z,22.74
2022-11-05T11:34:11.722Z,22.74
2022-11-05T11:35:15.986Z,22.73
2022-11-05T11:36:20.237Z,22.73
2022-11-05T11:37:24.489Z,22.72
2022-11-05T11:38:28.777Z,22.71
2022-11-05T11:39:33.008Z,22.71
2022-11-05T11:40:37.263Z,22.71
2022-11-05T11:41:41.481Z,22.7
2022-11-05T11:42:45.826Z,22.73
2022-11-05T11:43:50.119Z,22.74
2022-11-05T11:44:54.392Z,22.74
2022-11-05T11:46:03.883Z,22.75
2022-11-05T11:47:17.494Z,22.77
2022-11-05T11:48:21.713Z,22.8
2022-11-05T11:49:25.950Z,22.78
2022-11-05T11:50:30.209Z,22.79
2022-11-05T11:51:34.460Z,22.8
2022-11-05T11:52:38.702Z,22.81
2022-11-05T11:53:42.933Z,22.8
2022-11-05T11:54:47.168Z,22.79
2022-11-05T11:55:51.441Z,22.79
2022-11-05T11:56:55.698Z,22.79
2022-11-05T11:57:59.953Z,22.83
2022-11-05T11:59:04.202Z,22.84
2022-11-05T12:00:09.582Z,22.78
2022-11-05T12:01:13.935Z,22.73
2022-11-05T12:02:18.344Z,22.69
2022-11-05T12:03:23.271Z,22.69
2022-11-05T12:04:27.772Z,22.7
2022-11-05T12:05:32.049Z,22.73
2022-11-05T12:06:39.276Z,22.73
2022-11-05T12:07:43.520Z,22.72
2022-11-05T12:08:52.330Z,22.72
2022-11-05T12:10:09.608Z,22.73
2022-11-05T12:11:13.838Z,22.7
2022-11-05T12:12:18.108Z,22.7
2022-11-05T12:13:22.411Z,22.69
2022-11-05T12:14:26.699Z,22.66
2022-11-05T12:15:30.940Z,22.67
2022-11-05T12:16:35.193Z,22.64
2022-11-05T12:17:39.450Z,22.61
2022-11-05T12:18:43.715Z,22.62
2022-11-05T12:19:47.951Z,22.59
2022-11-05T12:20:57.009Z,22.62
2022-11-05T12:22:02.208Z,22.58
2022-11-05T12:23:06.479Z,22.56
2022-11-05T12:24:10.985Z,22.58
2022-11-05T12:25:15.196Z,22.56
2022-11-05T12:26:19.438Z,22.56
2022-11-05T12:27:23.694Z,22.56
2022-11-05T12:28:27.901Z,22.56
2022-11-05T12:29:35.671Z,22.56
2022-11-05T12:30:40.224Z,22.56
2022-11-05T12:31:44.520Z,22.55
2022-11-05T12:32:49.894Z,22.54
2022-11-05T12:33:54.389Z,22.57
2022-11-05T12:34:58.610Z,22.59
2022-11-05T12:36:02.981Z,22.62
2022-11-05T12:37:07.234Z,22.66
2022-11-05T12:38:11.494Z,22.69
2022-11-05T12:39:15.733Z,22.71
2022-11-05T12:40:19.972Z,22.75
2022-11-05T12:41:24.221Z,22.78
2022-11-05T12:42:28.539Z,22.78
2022-11-05T12:43:32.781Z,22.79
2022-11-05T12:44:37.039Z,22.79
2022-11-05T12:45:41.280Z,22.76
2022-11-05T12:46:45.552Z,22.74
2022-11-05T12:47:49.845Z,22.74
2022-11-05T12:48:54.096Z,22.73
2022-11-05T12:49:58.332Z,22.73
2022-11-05T12:51:02.536Z,22.72
2022-11-05T12:52:06.778Z,22.73
2022-11-05T12:53:11.284Z,22.72
2022-11-05T12:54:16.742Z,22.74
2022-11-05T12:55:20.988Z,22.74
2022-11-05T12:56:25.219Z,22.74
2022-11-05T12:57:29.434Z,22.72
2022-11-05T12:58:33.684Z,22.75
2022-11-05T12:59:37.911Z,22.76
2022-11-05T13:00:42.519Z,22.77
2022-11-05T13:01:46.865Z,22.8
2022-11-05T13:02:51.575Z,22.84
2022-11-05T13:03:55.815Z,22.83
2022-11-05T13:05:00.040Z,22.81
2022-11-05T13:06:05.994Z,22.8
2022-11-05T13:07:10.430Z,22.77
2022-11-05T13:08:14.686Z,22.72
2022-11-05T13:09:18.930Z,22.66
2022-11-05T13:10:23.145Z,22.66
2022-11-05T13:11:27.388Z,22.63
2022-11-05T13:12:31.608Z,22.62
2022-11-05T13:13:35.840Z,22.58
2022-11-05T13:14:40.283Z,22.59
2022-11-05T13:15:44.522Z,22.6
2022-11-05T13:16:48.770Z,22.58
2022-11-05T13:17:53.036Z,22.58
2022-11-05T13:18:58.305Z,22.57
2022-11-05T13:20:02.584Z,22.59
2022-11-05T13:21:06.809Z,22.62
2022-11-05T13:22:11.073Z,22.66
2022-11-05T13:23:15.301Z,22.7
2022-11-05T13:24:19.781Z,22.74
2022-11-05T13:25:24.020Z,22.79
2022-11-05T13:26:28.273Z,22.82
2022-11-05T13:27:32.495Z,22.85
2022-11-05T13:28:36.723Z,22.9
2022-11-05T13:29:40.909Z,22.92
2022-11-05T13:30:45.137Z,22.96
2022-11-05T13:31:49.599Z,22.98
2022-11-05T13:32:53.886Z,22.99
2022-11-05T13:33:58.149Z,23.04
2022-11-05T13:35:02.394Z,23.1
2022-11-05T13:36:06.656Z,23.08
2022-11-05T13:37:10.889Z,23.12
2022-11-05T13:38:15.120Z,23.12
2022-11-05T13:39:22.458Z,23.12
2022-11-05T13:40:26.737Z,23.12
2022-11-05T13:41:30.943Z,23.12
2022-11-05T13:42:35.186Z,23.09
2022-11-05T13:43:39.422Z,23.08
2022-11-05T13:44:43.673Z,23.06
2022-11-05T13:45:47.880Z,23.04
2022-11-05T13:46:52.119Z,23.05
2022-11-05T13:47:56.421Z,23.06
2022-11-05T13:49:00.663Z,23.08
2022-11-05T13:50:04.961Z,23.12
2022-11-05T13:51:09.174Z,23.13
2022-11-05T13:52:13.445Z,23.17
2022-11-05T13:53:17.685Z,23.17
2022-11-05T13:54:21.902Z,23.15
2022-11-05T13:55:26.170Z,23.19